Time;durP1;ratioP1;P1;durP2;ratioP2;P2;SDS_P1;SDS_P2;PMS_P1;PMS_P2;Temp;Humidity;BMP_temperature;BMP_pressure;BME280_temperature;BME280_humidity;BME280_pressure;Samples;Min_cycle;Max_cycle;Signal;HPM_P1;HPM_P2
2023/10/20 00:00:37;;;;;;;8.37;7.57;;;10.20;94.80;;;11.70;70.56;99225.47;3082426;46;20442;-67
2023/10/20 00:03:06;;;;;;;9.07;8.17;;;10.20;94.90;;;11.70;70.72;99230.72;3082838;46;20451;-66
2023/10/20 00:05:35;;;;;;;8.93;7.47;;;10.20;95.00;;;11.68;70.44;99246.78;3082236;46;20430;-68
2023/10/20 00:08:04;;;;;;;8.23;7.43;;;10.10;94.90;;;11.67;70.65;99245.13;3082716;46;20422;-65
2023/10/20 00:10:36;;;;;;;9.93;8.43;;;10.20;94.90;;;11.66;70.80;99225.09;3082086;46;20443;-67
2023/10/20 00:13:06;;;;;;;9.10;8.13;;;10.10;94.90;;;11.68;70.58;99222.25;3082152;46;20539;-66
2023/10/20 00:15:35;;;;;;;9.03;7.70;;;10.10;95.00;;;11.67;70.61;99229.31;3082774;46;20936;-65
2023/10/20 00:18:04;;;;;;;8.23;7.47;;;10.10;95.00;;;11.69;70.67;99226.50;3082802;46;20529;-67
2023/10/20 00:20:33;;;;;;;8.77;7.43;;;10.10;95.00;;;11.72;70.84;99224.22;3082692;46;20584;-67
2023/10/20 00:23:01;;;;;;;8.43;7.63;;;10.10;95.00;;;11.77;70.74;99231.47;3082460;46;20459;-65
2023/10/20 00:25:29;;;;;;;8.57;7.83;;;10.10;95.10;;;11.81;70.50;99237.94;3082635;46;20440;-67
2023/10/20 00:27:58;;;;;;;8.30;7.50;;;10.20;95.10;;;11.84;70.31;99238.28;3082317;46;20485;-66
2023/10/20 00:30:26;;;;;;;8.90;8.10;;;10.20;95.10;;;11.86;70.43;99241.50;3081737;46;21179;-68
2023/10/20 00:32:55;;;;;;;8.70;7.47;;;10.20;95.00;;;11.89;70.13;99243.72;3082654;46;20528;-66
2023/10/20 00:35:23;;;;;;;9.27;7.70;;;10.20;95.10;;;11.90;69.98;99236.63;3082439;46;20477;-67
2023/10/20 00:37:51;;;;;;;8.63;7.77;;;10.20;94.90;;;11.86;69.77;99244.13;3081814;46;20444;-66
2023/10/20 00:40:20;;;;;;;9.30;8.30;;;10.20;94.80;;;11.86;70.03;99236.22;3082028;46;20486;-66
2023/10/20 00:42:49;;;;;;;8.10;7.30;;;10.20;94.80;;;11.87;70.12;99226.50;3082709;46;20936;-67
2023/10/20 00:45:17;;;;;;;8.27;7.10;;;10.20;94.80;;;11.91;70.13;99223.19;3081303;46;20447;-66
2023/10/20 00:47:47;;;;;;;7.67;6.73;;;10.20;95.00;;;11.95;70.21;99219.13;3082360;46;20993;-67
2023/10/20 00:50:17;;;;;;;8.17;7.37;;;10.20;94.90;;;11.97;69.76;99217.06;3081940;46;20561;-67
2023/10/20 00:52:50;;;;;;;8.27;7.27;;;10.30;94.90;;;11.98;69.75;99207.31;3082220;46;20557;-66
2023/10/20 00:55:22;;;;;;;8.53;7.03;;;10.30;94.80;;;11.95;69.61;99202.50;3082407;46;20448;-66
2023/10/20 00:57:53;;;;;;;8.23;7.37;;;10.30;94.70;;;11.95;69.66;99205.13;3082623;46;20432;-67
2023/10/20 01:00:22;;;;;;;7.67;6.97;;;10.30;94.70;;;11.93;69.27;99189.50;3081068;46;20440;-67
2023/10/20 01:02:53;;;;;;;8.10;7.30;;;10.30;94.60;;;11.92;69.52;99187.91;3081309;46;20449;-68
2023/10/20 01:05:26;;;;;;;8.37;7.60;;;10.30;94.50;;;11.91;69.54;99186.28;3081557;46;20561;-67
2023/10/20 01:07:55;;;;;;;9.43;7.63;;;10.30;94.60;;;11.89;69.50;99172.53;3081848;46;20574;-66
2023/10/20 01:10:23;;;;;;;6.97;6.37;;;10.30;94.60;;;11.87;69.64;99169.31;3081670;46;21060;-65
2023/10/20 01:12:52;;;;;;;7.77;6.97;;;10.30;94.50;;;11.87;69.61;99171.13;3082496;46;20507;-67
2023/10/20 01:15:20;;;;;;;8.57;7.43;;;10.30;94.50;;;11.84;69.69;99175.03;3081992;46;20462;-67
2023/10/20 01:17:49;;;;;;;8.47;7.57;;;10.20;94.50;;;11.80;69.53;99171.22;3081385;46;20486;-67
2023/10/20 01:20:18;;;;;;;7.43;6.73;;;10.20;94.50;;;11.77;69.53;99174.28;3081658;46;21167;-66
2023/10/20 01:22:46;;;;;;;7.70;6.90;;;10.20;94.40;;;11.69;69.68;99174.59;3082017;46;20444;-67
2023/10/20 01:25:15;;;;;;;7.67;6.87;;;10.20;94.40;;;11.68;69.80;99165.06;3081962;46;20440;-66
2023/10/20 01:27:43;;;;;;;7.53;6.83;;;10.10;94.40;;;11.67;69.81;99158.16;3081614;46;20427;-66
2023/10/20 01:30:12;;;;;;;7.70;7.00;;;10.10;94.40;;;11.66;69.69;99167.09;3081790;46;21122;-67
2023/10/20 01:32:41;;;;;;;7.40;6.70;;;10.10;94.40;;;11.66;69.74;99156.56;3082146;46;20430;-67
2023/10/20 01:35:10;;;;;;;8.70;7.40;;;10.10;94.50;;;11.67;69.72;99154.75;3081393;46;20456;-67
2023/10/20 01:37:40;;;;;;;7.20;6.60;;;10.10;94.50;;;11.69;69.64;99150.88;3081233;46;21017;-67
2023/10/20 01:40:12;;;;;;;7.60;6.40;;;10.10;94.50;;;11.72;69.79;99153.06;3080582;46;20443;-67
2023/10/20 01:42:40;;;;;;;7.37;5.97;;;10.10;94.60;;;11.70;69.56;99147.22;3082264;46;20522;-67
2023/10/20 01:45:09;;;;;;;7.20;6.27;;;10.10;94.40;;;11.66;69.13;99148.66;3081676;46;20439;-67
2023/10/20 01:47:38;;;;;;;6.77;5.70;;;10.10;94.20;;;11.63;69.38;99141.19;3081691;46;20577;-67
2023/10/20 01:50:07;;;;;;;7.27;6.57;;;10.10;94.30;;;11.61;69.54;99139.78;3081491;46;20549;-65
2023/10/20 01:52:35;;;;;;;6.37;5.77;;;10.10;94.30;;;11.60;69.51;99131.06;3081207;46;20456;-66
2023/10/20 01:55:05;;;;;;;7.03;6.33;;;10.10;94.30;;;11.60;69.57;99140.84;3081768;46;20570;-65
2023/10/20 01:57:33;;;;;;;6.33;5.77;;;10.10;94.30;;;11.59;69.58;99134.75;3081464;46;21007;-66
2023/10/20 02:00:07;;;;;;;9.10;8.20;;;10.10;94.30;;;11.60;69.53;99130.28;3081146;46;20461;-66
2023/10/20 02:02:36;;;;;;;7.43;6.03;;;10.00;94.30;;;11.60;69.58;99112.63;3081929;46;20434;-68
2023/10/20 02:05:08;;;;;;;5.77;5.27;;;10.00;94.30;;;11.58;69.23;99102.31;3081802;46;21090;-65
2023/10/20 02:07:37;;;;;;;5.77;5.20;;;10.00;94.30;;;11.59;nan;99108.41;3081393;46;21170;-67
2023/10/20 02:10:06;;;;;;;5.30;4.80;;;10.00;94.30;;;11.58;69.39;99112.84;3080874;46;21159;-67
2023/10/20 02:12:35;;;;;;;5.50;4.73;;;10.00;94.30;;;11.60;69.46;99096.81;3081559;46;20431;-67
2023/10/20 02:15:06;;;;;;;5.47;4.97;;;10.00;94.30;;;11.63;69.35;99088.47;3081369;46;20427;-67
2023/10/20 02:17:35;;;;;;;5.50;5.00;;;10.00;94.40;;;11.65;69.27;99078.50;3081630;46;20509;-66
2023/10/20 02:20:05;;;;;;;7.87;5.33;;;10.00;94.30;;;11.67;69.34;99079.09;3081134;46;20447;-66
2023/10/20 02:22:33;;;;;;;5.53;4.70;;;10.10;94.30;;;11.69;69.13;99066.56;3081348;46;20432;-66
2023/10/20 02:25:02;;;;;;;5.20;4.70;;;10.10;94.30;;;11.68;69.00;99064.94;3080982;46;21132;-66
2023/10/20 02:27:31;;;;;;;4.40;4.00;;;10.10;94.20;;;11.68;69.12;99070.22;3081351;46;21179;-68
2023/10/20 02:30:00;;;;;;;4.77;4.37;;;10.00;94.10;;;11.66;68.92;99068.78;3081034;46;20443;-67
2023/10/20 02:32:28;;;;;;;5.17;4.60;;;10.00;94.10;;;11.65;69.21;99081.16;3081270;46;20427;-66
2023/10/20 02:34:56;;;;;;;5.17;4.13;;;10.10;94.20;;;11.68;69.13;99086.03;3081503;46;20535;-67
2023/10/20 02:37:25;;;;;;;4.47;4.07;;;10.00;94.10;;;11.68;69.23;99091.28;3080850;46;20514;-67
2023/10/20 02:39:53;;;;;;;4.30;3.87;;;10.10;94.50;;;11.68;68.68;99079.94;3080780;46;20443;-67
2023/10/20 02:42:21;;;;;;;4.17;3.77;;;10.10;94.10;;;11.69;69.00;99082.38;3080264;46;20543;-67
2023/10/20 02:44:50;;;;;;;4.10;3.80;;;10.10;94.20;;;11.73;69.17;99088.78;3080908;46;20435;-68
2023/10/20 02:47:19;;;;;;;3.83;3.53;;;10.10;94.20;;;11.73;68.59;99083.53;3081536;46;20508;-68
2023/10/20 02:49:58;;;;;;;4.07;3.77;;;10.10;94.10;;;11.71;68.68;99064.50;3080565;46;20452;-65
2023/10/20 02:52:27;;;;;;;4.00;3.70;;;10.10;94.00;;;11.69;68.65;99058.66;3081369;46;20432;-66
2023/10/20 02:54:56;;;;;;;3.70;3.37;;;10.10;93.90;;;11.68;68.60;99059.66;3081147;46;20465;-67
2023/10/20 02:57:24;;;;;;;3.57;3.27;;;10.10;93.90;;;11.68;68.49;99064.13;3080749;46;20545;-67
2023/10/20 02:59:52;;;;;;;3.87;3.57;;;10.10;93.90;;;11.69;68.79;99071.81;3080478;46;20466;-67
2023/10/20 03:02:22;;;;;;;3.03;2.80;;;10.10;93.90;;;11.68;68.65;99072.84;3080788;46;20565;-67
2023/10/20 03:04:54;;;;;;;4.60;3.40;;;10.10;93.90;;;11.65;68.48;99070.59;3081050;46;20550;-67
2023/10/20 03:07:27;;;;;;;2.97;2.77;;;10.10;93.80;;;11.66;68.84;99066.97;3081184;46;20430;-67
2023/10/20 03:09:55;;;;;;;3.43;3.03;;;10.10;93.90;;;11.70;68.85;99062.88;3080148;46;20565;-67
2023/10/20 03:12:24;;;;;;;3.60;3.30;;;10.10;94.00;;;11.73;69.11;99061.63;3080689;46;20432;-67
2023/10/20 03:14:52;;;;;;;3.40;3.10;;;10.10;94.00;;;11.78;68.70;99053.84;3080960;46;20552;-66
2023/10/20 03:17:20;;;;;;;2.87;2.67;;;10.20;94.10;;;11.80;68.47;99047.34;3080809;46;20428;-67
2023/10/20 03:19:49;;;;;;;3.07;2.87;;;10.10;93.90;;;11.80;68.29;99043.91;3080388;46;20440;-66
2023/10/20 03:22:17;;;;;;;3.17;2.87;;;10.20;93.80;;;11.79;68.32;99037.81;3079886;46;20448;-68
2023/10/20 03:24:46;;;;;;;2.87;2.67;;;10.20;93.80;;;11.80;68.21;99036.78;3079495;46;20517;-67
2023/10/20 03:27:14;;;;;;;3.43;2.40;;;10.20;93.80;;;11.82;68.15;99033.91;3080105;46;20473;-66
2023/10/20 03:29:43;;;;;;;2.67;2.47;;;10.20;93.80;;;11.79;67.88;99035.16;3080400;46;20448;-66
2023/10/20 03:32:11;;;;;;;2.77;2.57;;;10.20;93.60;;;11.78;68.05;99030.94;3080754;46;20431;-66
2023/10/20 03:34:40;;;;;;;3.10;2.80;;;10.20;93.50;;;11.77;68.16;99031.16;3080603;46;20432;-67
2023/10/20 03:37:08;;;;;;;2.60;2.40;;;10.20;93.50;;;11.78;68.19;99015.13;3079953;46;20497;-66
2023/10/20 03:39:37;;;;;;;2.80;2.53;;;10.20;93.50;;;11.79;67.85;99013.31;3079698;46;20513;-68
2023/10/20 03:42:07;;;;;;;2.57;2.37;;;10.20;93.50;;;11.78;67.94;99025.69;3080520;46;20558;-66
2023/10/20 03:44:35;;;;;;;2.27;2.07;;;10.20;93.50;;;11.79;68.05;99018.56;3080699;46;20477;-67
2023/10/20 03:47:05;;;;;;;2.77;2.57;;;10.20;93.60;;;11.76;67.83;99017.19;3080721;46;20434;-66
2023/10/20 03:49:35;;;;;;;2.53;2.20;;;10.20;93.40;;;11.72;67.73;99013.38;3080424;46;20439;-67
2023/10/20 03:52:06;;;;;;;3.17;2.10;;;10.20;93.40;;;11.73;67.88;99019.47;3080411;46;20423;-66
2023/10/20 03:54:35;;;;;;;2.27;2.07;;;10.20;93.50;;;11.75;68.11;99007.66;3079679;46;21107;-68
2023/10/20 03:57:03;;;;;;;2.50;2.30;;;10.20;93.50;;;11.75;67.78;99002.41;3080682;46;20463;-66
2023/10/20 03:59:34;;;;;;;2.20;2.10;;;10.10;93.40;;;11.76;67.64;99004.00;3079906;46;20493;-68
2023/10/20 04:02:03;;;;;;;2.67;2.47;;;10.20;93.40;;;11.76;67.76;98998.75;3080253;46;20428;-66
2023/10/20 04:04:31;;;;;;;2.30;2.20;;;10.10;93.40;;;11.73;67.59;98990.47;3080801;46;21014;-66
2023/10/20 04:07:01;;;;;;;2.60;2.17;;;10.10;93.20;;;11.70;67.71;98986.44;3079728;46;20426;-67
2023/10/20 04:09:29;;;;;;;2.50;2.33;;;10.10;93.20;;;11.71;67.75;98974.88;3079740;46;20473;-68
2023/10/20 04:11:58;;;;;;;2.47;2.27;;;10.10;93.30;;;11.67;67.81;98973.69;3079993;46;20473;-66
2023/10/20 04:14:26;;;;;;;1.90;1.80;;;10.10;93.30;;;11.65;67.83;98970.47;3080374;46;20511;-66
2023/10/20 04:16:54;;;;;;;2.13;2.03;;;10.10;93.20;;;11.63;67.91;98963.81;3080316;46;20518;-67
2023/10/20 04:19:25;;;;;;;2.23;2.00;;;10.10;93.20;;;11.61;67.87;98964.06;3079788;46;20572;-66
2023/10/20 04:21:54;;;;;;;2.13;2.03;;;10.10;93.30;;;11.58;67.88;98964.50;3082058;46;20469;-68
2023/10/20 04:24:22;;;;;;;1.90;1.80;;;10.10;93.20;;;11.60;68.08;98959.03;3082810;46;21081;-68
2023/10/20 04:26:51;;;;;;;2.40;2.20;;;10.10;93.30;;;11.63;68.01;98955.91;3082710;46;20580;-67
2023/10/20 04:48:18;;;;;;;2.83;1.40;;;10.10;93.30;;;11.65;67.77;98917.00;3082241;46;20423;-66
2023/10/20 04:51:09;;;;;;;2.57;1.97;;;10.10;93.20;;;11.66;67.86;98913.31;3081841;46;20439;-67
2023/10/20 04:53:45;;;;;;;2.90;2.10;;;10.10;93.30;;;11.69;68.08;98921.63;3082592;46;20481;-65
2023/10/20 04:59:04;;;;;;;1.93;1.30;;;10.10;93.30;;;11.73;67.67;98901.69;3081993;46;21053;-66
2023/10/20 05:01:49;;;;;;;1.67;1.57;;;10.10;93.50;;;11.73;67.83;98882.41;3082308;46;20438;-67
2023/10/20 05:04:23;;;;;;;4.87;1.70;;;10.20;93.30;;;11.70;67.58;98894.22;3082268;46;20568;-66
2023/10/20 05:07:00;;;;;;;1.87;1.50;;;10.10;93.20;;;11.62;67.64;98899.81;3082261;46;20545;-67
2023/10/20 05:09:32;;;;;;;4.17;1.97;;;10.10;93.10;;;11.58;67.90;98898.63;3081885;46;20545;-67
2023/10/20 05:12:00;;;;;;;2.20;1.40;;;10.10;93.20;;;11.58;67.90;98899.44;3082255;46;20431;-67
2023/10/20 05:14:29;;;;;;;1.40;1.30;;;10.10;93.20;;;11.58;67.95;98898.63;3082262;46;20459;-67
2023/10/20 05:16:57;;;;;;;3.00;1.53;;;10.10;93.20;;;11.57;68.11;98889.13;3081656;46;20518;-66
2023/10/20 05:19:32;;;;;;;1.70;1.60;;;10.10;93.30;;;11.60;68.12;98886.03;3081402;46;20530;-65
2023/10/20 05:22:01;;;;;;;1.40;1.30;;;10.10;93.40;;;11.63;68.06;98890.03;3081776;46;20554;-66
2023/10/20 05:24:29;;;;;;;1.33;1.23;;;10.10;93.40;;;11.61;67.83;98900.00;3082172;46;20448;-67
2023/10/20 05:26:58;;;;;;;1.90;1.43;;;10.10;93.40;;;11.60;68.11;98893.94;3082375;46;20428;-66
2023/10/20 05:29:26;;;;;;;2.30;2.00;;;10.10;93.40;;;11.60;68.21;98886.03;3081676;46;20493;-66
2023/10/20 05:31:55;;;;;;;2.23;1.37;;;10.10;93.40;;;11.61;68.34;98886.84;3080658;46;21013;-65
2023/10/20 05:34:23;;;;;;;3.00;1.70;;;10.00;93.50;;;11.62;68.30;98865.53;3082091;46;20528;-67
2023/10/20 05:36:53;;;;;;;2.67;1.40;;;10.00;93.50;;;11.60;67.91;98870.22;3081142;46;21074;-67
2023/10/20 05:39:21;;;;;;;1.37;1.27;;;10.10;93.30;;;11.60;67.99;98861.53;3081448;46;20440;-65
2023/10/20 05:41:50;;;;;;;1.40;1.30;;;10.10;93.40;;;11.62;68.18;98865.53;3081873;46;20454;-68
2023/10/20 05:44:23;;;;;;;1.57;1.33;;;10.00;93.40;;;11.62;67.83;98872.66;3080134;46;20446;-69
2023/10/20 05:46:52;;;;;;;1.73;1.63;;;10.00;93.30;;;11.62;67.86;98875.28;3081546;46;20488;-66
2023/10/20 05:49:21;;;;;;;3.23;1.43;;;10.00;93.30;;;11.62;67.80;98886.63;3081529;46;20525;-65
2023/10/20 05:51:51;;;;;;;2.00;1.70;;;10.00;93.20;;;11.59;67.71;98902.88;3081675;46;21017;-67
2023/10/20 05:54:19;;;;;;;2.00;1.60;;;10.10;93.20;;;11.56;67.61;98904.13;3081592;46;20496;-66
2023/10/20 05:56:48;;;;;;;2.20;1.70;;;10.00;93.10;;;11.57;67.78;98883.88;3081588;46;20428;-65
2023/10/20 05:59:16;;;;;;;2.10;1.73;;;10.10;93.20;;;11.56;67.61;98883.06;3080687;46;20439;-67
2023/10/20 06:01:45;;;;;;;1.77;1.60;;;10.10;93.10;;;11.57;67.62;98881.22;3081462;46;20439;-67
2023/10/20 06:04:14;;;;;;;2.63;2.03;;;10.00;93.10;;;11.57;67.58;98883.88;3081562;46;20502;-66
2023/10/20 06:06:42;;;;;;;2.20;1.73;;;10.00;93.10;;;11.60;67.23;98883.38;3081714;46;20438;-69
2023/10/20 06:09:11;;;;;;;4.10;3.20;;;10.00;93.20;;;11.63;67.46;98882.94;3081012;46;20497;-66
2023/10/20 06:11:39;;;;;;;2.40;1.70;;;10.00;93.10;;;11.63;67.34;98888.22;3081428;46;20428;-66
2023/10/20 06:14:08;;;;;;;7.17;4.70;;;10.00;93.10;;;11.61;67.14;98878.94;3080320;46;20423;-66
2023/10/20 06:16:36;;;;;;;2.63;2.20;;;10.10;92.90;;;11.58;67.18;98864.38;3081444;46;21009;-67
2023/10/20 06:19:04;;;;;;;3.40;2.83;;;10.00;92.90;;;11.53;67.12;98848.44;3081402;46;20512;-67
2023/10/20 06:21:35;;;;;;;3.20;2.90;;;10.00;92.80;;;11.52;67.29;98839.75;3081380;46;20439;-66
2023/10/20 06:24:04;;;;;;;2.10;1.90;;;10.00;92.90;;;11.55;67.53;98855.09;3081479;46;20432;-64
2023/10/20 06:26:32;;;;;;;1.80;1.60;;;10.00;93.00;;;11.52;66.98;98846.84;3080815;46;20524;-67
2023/10/20 06:29:01;;;;;;;5.83;2.00;;;10.00;92.90;;;11.51;67.10;98855.78;3081190;46;20428;-65
2023/10/20 06:36:46;;;;;;;2.03;1.90;;;9.90;93.50;;;11.48;67.13;98843.06;3080646;46;20479;-66
2023/10/20 06:39:18;;;;;;;2.10;1.60;;;9.90;93.50;;;11.50;67.26;98827.84;3081340;46;21114;-65
2023/10/20 06:41:47;;;;;;;3.97;2.00;;;9.90;93.60;;;11.48;67.43;98832.53;3080625;46;20468;-67
2023/10/20 06:44:15;;;;;;;4.17;2.20;;;9.90;93.60;;;11.45;67.32;98827.72;3080314;46;20428;-67
2023/10/20 06:46:45;;;;;;;3.53;1.90;;;9.90;93.50;;;11.47;67.60;98825.66;3081067;46;20470;-67
2023/10/20 06:49:18;;;;;;;9.83;5.37;;;9.90;93.70;;;11.49;67.28;98819.13;3080741;46;21055;-67
2023/10/20 06:51:47;;;;;;;2.83;2.30;;;9.90;93.60;;;11.51;67.23;98824.16;3080466;46;20585;-68
2023/10/20 06:54:17;;;;;;;2.50;2.00;;;9.90;93.60;;;11.52;66.70;98828.41;3080795;46;21061;-66
2023/10/20 06:56:45;;;;;;;3.57;2.17;;;9.90;93.20;;;11.49;66.81;98820.94;3081041;46;21024;-67
2023/10/20 06:59:14;;;;;;;7.83;2.13;;;9.90;93.20;;;11.49;66.99;98829.66;3080706;46;20501;-67
2023/10/20 07:01:43;;;;;;;3.43;2.47;;;9.90;93.30;;;11.50;66.84;98830.47;3081016;46;20449;-66
2023/10/20 07:04:13;;;;;;;3.30;2.13;;;9.90;93.40;;;11.49;67.17;98824.41;3080897;46;20608;-67
2023/10/20 07:06:41;;;;;;;2.53;2.07;;;9.90;93.40;;;11.52;67.03;98829.22;3081184;46;20477;-67
2023/10/20 07:09:13;;;;;;;3.50;2.17;;;9.90;93.40;;;11.53;66.74;98819.47;3080114;46;20428;-64
2023/10/20 07:11:43;;;;;;;2.83;2.20;;;9.90;93.20;;;11.50;66.75;98814.66;3080437;46;20438;-67
2023/10/20 07:14:11;;;;;;;3.27;2.27;;;9.80;93.20;;;11.51;66.75;98818.88;3081096;46;21014;-67
2023/10/20 07:16:40;;;;;;;2.00;1.80;;;9.90;93.40;;;11.53;66.73;98811.56;3080904;46;20439;-67
2023/10/20 07:19:09;;;;;;;5.53;4.23;;;9.90;93.40;;;11.48;66.45;98822.00;3080435;46;20479;-66
2023/10/20 07:21:37;;;;;;;4.50;2.20;;;9.80;93.10;;;11.44;66.42;98831.38;3080222;46;20593;-67
2023/10/20 07:24:07;;;;;;;3.80;1.93;;;9.80;93.00;;;11.43;66.56;98821.88;3080238;46;20429;-67
2023/10/20 07:26:35;;;;;;;3.47;2.37;;;9.80;93.10;;;11.43;66.42;98827.16;3080997;46;20920;-65
2023/10/20 07:29:03;;;;;;;3.43;2.20;;;9.80;93.00;;;11.43;66.34;98819.25;3080405;46;20530;-67
2023/10/20 07:31:32;;;;;;;2.30;1.97;;;9.80;93.00;;;11.42;66.29;98815.81;3080599;46;21066;-68
2023/10/20 07:34:02;;;;;;;4.20;2.13;;;9.80;93.00;;;11.38;66.15;98811.22;3080589;46;21188;-66
2023/10/20 07:36:31;;;;;;;1.97;1.53;;;9.80;92.90;;;11.33;66.31;98813.72;3079194;46;20553;-67
2023/10/20 07:38:59;;;;;;;4.63;2.87;;;9.80;92.90;;;11.33;66.36;98805.81;3079972;46;20436;-69
2023/10/20 07:41:28;;;;;;;5.27;2.87;;;9.80;92.90;;;11.29;66.16;98802.06;3080561;46;20528;-67
2023/10/20 07:43:58;;;;;;;2.23;2.03;;;9.80;92.90;;;11.28;66.33;98795.97;3080299;46;20439;-66
2023/10/20 07:46:27;;;;;;;2.20;2.00;;;9.70;92.90;;;11.30;66.51;98803.63;3080317;46;20580;-66
2023/10/20 07:48:55;;;;;;;3.67;2.20;;;9.70;93.00;;;11.32;66.44;98812.09;3079854;43;20910;-67
2023/10/20 07:51:24;;;;;;;2.47;2.27;;;9.70;93.00;;;11.33;66.38;98808.47;3080044;46;21058;-67
2023/10/20 07:53:53;;;;;;;4.70;3.50;;;9.70;92.90;;;11.35;66.31;98801.13;3080537;46;20442;-66
2023/10/20 07:56:21;;;;;;;3.53;2.43;;;9.70;92.90;;;11.35;66.12;98801.13;3082865;46;21118;-65
2023/10/20 07:58:50;;;;;;;2.60;2.30;;;9.70;92.90;;;11.33;66.32;98792.66;3082708;46;20429;-66
2023/10/20 08:01:19;;;;;;;3.53;2.10;;;9.70;93.00;;;11.31;66.60;98797.34;3083010;46;20427;-66
2023/10/20 08:03:47;;;;;;;2.50;1.90;;;9.70;93.00;;;11.28;66.55;98790.72;3082634;46;21028;-66
2023/10/20 08:06:16;;;;;;;2.40;1.87;;;9.70;93.10;;;11.31;66.63;98795.53;3082975;46;20504;-66
2023/10/20 08:08:46;;;;;;;5.03;4.03;;;9.70;93.20;;;11.33;66.74;98785.56;3082576;46;20451;-67
2023/10/20 08:11:14;;;;;;;3.97;3.30;;;9.70;93.30;;;11.37;66.74;98785.91;3082510;46;20529;-66
2023/10/20 08:13:50;;;;;;;4.57;3.50;;;9.70;93.20;;;11.36;66.50;98782.44;3082329;46;20482;-67
2023/10/20 08:16:20;;;;;;;2.60;2.40;;;9.70;93.10;;;11.31;66.69;98773.66;3082752;46;20438;-66
2023/10/20 08:18:51;;;;;;;19.67;14.13;;;9.70;93.10;;;11.30;66.74;98780.75;3081971;46;20527;-66
2023/10/20 08:21:20;;;;;;;3.13;2.40;;;9.70;93.20;;;11.24;66.87;98768.50;3082863;46;20430;-67
2023/10/20 08:23:48;;;;;;;2.93;2.63;;;9.70;93.20;;;11.20;67.16;98772.59;3083023;46;20423;-66
2023/10/20 08:26:19;;;;;;;27.33;19.30;;;9.70;93.40;;;11.17;67.18;98782.78;3082984;46;20518;-66
2023/10/20 08:28:49;;;;;;;14.90;11.30;;;9.60;93.60;;;11.11;67.26;98773.97;3082464;46;20438;-66
2023/10/20 08:31:17;;;;;;;4.93;3.43;;;9.60;93.40;;;11.04;67.75;98775.09;3082839;46;20492;-66
2023/10/20 08:33:46;;;;;;;3.27;2.10;;;9.60;93.40;;;11.02;67.78;98759.53;3082307;46;20426;-67
2023/10/20 08:36:15;;;;;;;3.20;2.10;;;9.50;93.50;;;11.01;67.82;98747.38;3082189;43;20435;-66
2023/10/20 08:38:47;;;;;;;3.47;2.00;;;9.50;93.80;;;11.00;67.95;98744.97;3082168;46;20524;-65
2023/10/20 08:41:22;;;;;;;4.23;2.37;;;9.50;93.80;;;10.98;68.04;98747.03;3081979;46;20443;-67
2023/10/20 08:43:51;;;;;;;4.17;2.23;;;9.50;93.80;;;10.93;68.13;98744.28;3081741;46;20998;-66
2023/10/20 08:46:22;;;;;;;1.77;1.67;;;9.40;93.70;;;10.87;68.42;98744.16;3082493;46;20553;-66
2023/10/20 08:48:52;;;;;;;1.57;1.43;;;9.40;93.80;;;10.86;68.20;98744.38;3081608;46;20428;-66
2023/10/20 08:51:22;;;;;;;2.83;1.77;;;9.40;94.10;;;10.82;68.41;98736.13;3082968;46;20443;-67
2023/10/20 08:53:51;;;;;;;2.33;1.80;;;9.40;94.00;;;10.82;68.51;98737.94;3082164;46;20456;-68
2023/10/20 08:56:20;;;;;;;2.03;1.80;;;9.30;94.00;;;10.80;68.68;98743.44;3082394;46;20518;-68
2023/10/20 08:58:50;;;;;;;1.90;1.70;;;9.30;94.10;;;10.78;68.70;98747.34;3081873;46;20544;-65
2023/10/20 09:01:18;;;;;;;2.73;1.77;;;9.30;94.10;;;10.77;68.70;98743.91;3082441;46;20434;-65
2023/10/20 09:03:48;;;;;;;3.13;1.97;;;9.30;94.00;;;10.78;68.84;98747.34;3082289;46;20428;-66
2023/10/20 09:06:16;;;;;;;9.43;6.70;;;9.20;94.20;;;10.79;68.90;98743.69;3081146;46;20455;-66
2023/10/20 09:08:50;;;;;;;4.50;3.63;;;9.30;94.30;;;10.78;68.95;98742.88;3082277;46;20467;-68
2023/10/20 09:11:25;;;;;;;2.27;1.83;;;9.20;94.30;;;10.74;69.06;98743.56;3082200;46;20460;-67
2023/10/20 09:13:57;;;;;;;2.00;1.80;;;9.20;94.20;;;10.69;68.97;98744.22;3081948;46;20451;-66
2023/10/20 09:16:27;;;;;;;2.90;2.20;;;9.20;94.20;;;10.69;69.19;98749.50;3081950;46;20435;-66
2023/10/20 09:18:55;;;;;;;3.13;2.07;;;9.20;94.20;;;10.70;69.06;98747.63;3081722;46;20504;-66
2023/10/20 09:21:28;;;;;;;2.20;2.00;;;9.20;94.30;;;10.70;69.27;98731.84;3081806;46;20438;-67
2023/10/20 09:24:03;;;;;;;3.90;2.83;;;9.20;94.40;;;10.71;68.90;98742.19;3082294;46;20556;-67
2023/10/20 09:26:38;;;;;;;2.93;2.43;;;9.20;94.30;;;10.70;69.04;98745.00;3082383;46;21098;-67
2023/10/20 09:29:07;;;;;;;4.60;3.50;;;9.20;94.30;;;10.71;69.14;98730.84;3081498;46;20558;-68
2023/10/20 09:31:37;;;;;;;2.23;1.97;;;9.20;94.40;;;10.75;69.20;98737.25;3081860;46;21048;-66
2023/10/20 09:34:06;;;;;;;2.07;1.87;;;9.20;94.40;;;10.79;69.04;98738.44;3081557;46;21009;-68
2023/10/20 09:36:36;;;;;;;3.53;2.10;;;9.20;94.40;;;10.83;69.10;98742.19;3080610;46;20588;-67
2023/10/20 09:39:10;;;;;;;10.63;8.90;;;9.20;94.40;;;10.83;68.69;98740.38;3081401;46;20439;-66
2023/10/20 09:41:48;;;;;;;2.97;2.07;;;9.20;94.40;;;10.85;68.82;98737.50;3082087;46;20444;-67
2023/10/20 09:44:39;;;;;;;2.27;1.87;;;9.30;94.50;;;10.83;68.81;98744.84;3081886;46;20583;-67
2023/10/20 09:47:24;;;;;;;2.10;1.83;;;9.30;94.40;;;10.80;68.85;98740.00;3081760;46;20442;-67
2023/10/20 09:49:54;;;;;;;1.97;1.80;;;9.30;94.40;;;10.82;68.81;98744.03;3080389;46;21515;-67
2023/10/20 09:52:23;;;;;;;2.20;1.97;;;9.30;94.30;;;10.83;68.84;98742.19;3081823;46;20583;-67
2023/10/20 09:54:53;;;;;;;1.83;1.73;;;9.30;94.30;;;10.85;68.83;98742.78;3080731;46;20454;-63
2023/10/20 09:57:26;;;;;;;24.80;16.87;;;9.30;94.30;;;10.84;68.87;98741.16;3082164;46;20435;-65
2023/10/20 09:59:54;;;;;;;2.20;2.00;;;9.30;94.30;;;10.80;68.76;98743.44;3081253;46;20562;-67
2023/10/20 10:02:31;;;;;;;2.53;2.33;;;9.30;94.20;;;10.77;68.87;98738.63;3081658;46;20996;-65
2023/10/20 10:05:01;;;;;;;3.43;2.30;;;9.30;94.30;;;10.77;68.84;98750.97;3080793;46;20439;-66
2023/10/20 10:07:34;;;;;;;1.87;1.70;;;9.30;94.30;;;10.73;68.84;98744.56;3081367;46;20434;-67
2023/10/20 10:10:03;;;;;;;2.77;2.17;;;9.20;94.30;;;10.73;68.91;98740.13;3080788;46;21010;-66
2023/10/20 10:12:35;;;;;;;2.43;1.93;;;9.20;94.30;;;10.72;69.00;98737.72;3081759;46;21134;-66
2023/10/20 10:15:07;;;;;;;2.13;1.80;;;9.20;94.30;;;10.71;69.19;98738.72;3081714;46;20513;-66
2023/10/20 10:17:51;;;;;;;6.03;3.87;;;9.20;94.40;;;10.69;69.28;98743.41;3081034;46;20459;-66
2023/10/20 10:20:27;;;;;;;3.80;2.70;;;9.20;94.50;;;10.69;69.11;98736.34;3080936;46;20500;-66
2023/10/20 10:23:06;;;;;;;2.07;1.87;;;9.20;94.50;;;10.61;69.32;98741.91;3081370;46;20452;-67
2023/10/20 10:25:41;;;;;;;2.53;2.30;;;9.20;94.40;;;10.60;69.43;98734.25;3080774;46;20461;-68
2023/10/20 10:28:22;;;;;;;2.33;2.00;;;9.20;94.40;;;10.57;69.38;98746.03;3081201;46;20431;-67
2023/10/20 10:30:52;;;;;;;2.50;2.27;;;9.20;94.40;;;10.57;69.60;98732.88;3079939;46;21159;-67
2023/10/20 10:33:23;;;;;;;3.10;2.50;;;9.10;94.50;;;10.58;69.60;98739.72;3081310;46;20456;-65
2023/10/20 10:36:09;;;;;;;1.90;1.70;;;9.10;94.60;;;10.51;69.46;98736.38;3080030;46;21096;-65
2023/10/20 10:38:45;;;;;;;4.30;2.37;;;9.10;94.40;;;10.47;69.50;98735.22;3079897;46;20432;-66
2023/10/20 10:41:13;;;;;;;4.90;3.90;;;9.10;94.40;;;10.47;69.83;98735.22;3079827;46;20448;-66
2023/10/20 10:43:42;;;;;;;5.23;4.33;;;9.00;94.60;;;10.49;70.23;98738.44;3080648;46;21077;-66
2023/10/20 10:46:11;;;;;;;9.13;8.03;;;9.00;94.70;;;10.53;70.17;98729.06;3081167;46;20520;-66
2023/10/20 10:48:40;;;;;;;72.37;49.83;;;9.00;94.80;;;10.58;70.33;98720.50;3080388;46;20439;-66
2023/10/20 10:51:08;;;;;;;5.97;5.20;;;9.00;95.00;;;10.64;70.26;98725.69;3080522;46;20460;-67
2023/10/20 10:53:38;;;;;;;4.03;2.70;;;9.10;95.10;;;10.69;70.06;98728.44;3081008;46;20427;-65
2023/10/20 10:56:09;;;;;;;3.97;3.57;;;9.10;95.10;;;10.71;70.06;98715.06;3081338;46;20427;-67
2023/10/20 10:58:38;;;;;;;2.43;2.20;;;9.10;95.00;;;10.72;69.90;98711.41;3079528;46;20427;-66
2023/10/20 11:01:07;;;;;;;3.53;2.13;;;9.20;95.00;;;10.71;69.85;98700.06;3080392;46;20484;-66